Hauptseite
METAR-TAF:

METAR-TAF

Flughäfen :

Helipuerto de Algeciras

Algeciras, Spanien

Breite: 36-07-44N, Länge: 05-26-28W, Höhe: 30 m

Beobachtung

Neuester Wetterbericht von vor 28 Minuten, um 08:00 UTC
Wind 11 kt aus Ost
Temperatur 13°C
Luftfeuchtigkeit 94%
Luftdruck 1019 hPa
Sichtweite: 6000 m
Leicht bewölkt in der Höhe von 1800 ft
Durchbrochene Bewölkung in der Höhe von 2400 ft
Geschlossene Wolkendecke in der Höhe von 3100 ft
Regen

METAR: LEAG 240800Z AUTO 08011KT 6000 RA FEW018 BKN024 OVC031 13/12 Q1019

Zeit: 09:28 (08:28 UTC)


TAF: fehlend

Wetterbeobachtungen und Prognosen von mehr als 4000 Flughäfen (METAR und TAF Bericht).

Die verfügbaren Stationen werden durch gelbe und rote Markierungen auf der Karte dargestellt.

Führen Sie die Maus auf sie, um den Namen der Station zu sehen.

Darauf klicken, um die Beobachtung von Wetterbeobachtungen und Prognosen zu sehen.

Um die Karte zu ändern : klicken Sie auf den grünen Tasten mit einem schwarzen Kreuz Zum Vergrößern, auf den grünen Button mit einem Gedankenstrich zu verkleinern, oder auf die grünen Pfeile für benachbarte Karten.


METAR-TAF: